RYR5922 LDDU-EPPO
Flight info
| Callsign | RYR5922 |
|---|---|
| Flight time | 1h 26m |
| Altitude | 32000 |
| Route | MADOS DCT VEBAL DCT KUVEX DCT MAVOR DCT UPLAV DCT DESEN DCT ARMEX DCT NILPU |
| Aircraft | B738/M-SDE2E3FGHIRWXY/LB1 |
Departure
| Time | 2026-05-06 17:29 |
|---|---|
| Airport | Dubrovnik Ruđer Bošković Airport (LDDU) |
Arrival
| Time | 2026-05-06 18:55 |
|---|---|
| Airport | Poznań-Ławica Airport (EPPO) |
| Time | Latitude | Longitude | Altitude | Speed | Heading |
|---|---|---|---|---|---|
| 2026-05-06 17:03 | 42.56046 | 18.26398 | 533 ft | 0 kts | 208° |
| 2026-05-06 17:22 | 42.56048 | 18.26399 | 533 ft | 2 kts | 208° |
| 2026-05-06 17:22 | 42.56070 | 18.26416 | 533 ft | 4 kts | 211° |
| 2026-05-06 17:22 | 42.56089 | 18.26439 | 533 ft | 4 kts | 250° |
| 2026-05-06 17:22 | 42.56090 | 18.26471 | 533 ft | 4 kts | 295° |
| 2026-05-06 17:23 | 42.56085 | 18.26483 | 533 ft | 0 kts | 298° |
| 2026-05-06 17:25 | 42.56098 | 18.26450 | 533 ft | 11 kts | 298° |
| 2026-05-06 17:25 | 42.56157 | 18.26301 | 533 ft | 22 kts | 298° |
| 2026-05-06 17:25 | 42.56229 | 18.26121 | 533 ft | 21 kts | 298° |
| 2026-05-06 17:25 | 42.56298 | 18.25946 | 533 ft | 21 kts | 298° |
| 2026-05-06 17:26 | 42.56366 | 18.25776 | 533 ft | 20 kts | 298° |
| 2026-05-06 17:26 | 42.56431 | 18.25611 | 533 ft | 20 kts | 298° |
| 2026-05-06 17:26 | 42.56494 | 18.25452 | 533 ft | 19 kts | 298° |
| 2026-05-06 17:26 | 42.56556 | 18.25298 | 533 ft | 18 kts | 298° |
| 2026-05-06 17:27 | 42.56615 | 18.25149 | 533 ft | 18 kts | 298° |
| 2026-05-06 17:27 | 42.56672 | 18.25003 | 533 ft | 18 kts | 298° |
| 2026-05-06 17:27 | 42.56731 | 18.24853 | 533 ft | 18 kts | 298° |
| 2026-05-06 17:27 | 42.56792 | 18.24712 | 533 ft | 17 kts | 311° |
| 2026-05-06 17:28 | 42.56899 | 18.24687 | 533 ft | 16 kts | 30° |
| 2026-05-06 17:28 | 42.56931 | 18.24821 | 532 ft | 16 kts | 109° |
| 2026-05-06 17:28 | 42.56822 | 18.25093 | 530 ft | 70 kts | 119° |
| 2026-05-06 17:28 | 42.56470 | 18.25987 | 536 ft | 142 kts | 118° |
| 2026-05-06 17:29 | 42.55959 | 18.27294 | 1119 ft | 161 kts | 122° |
| 2026-05-06 17:29 | 42.55421 | 18.28652 | 2006 ft | 174 kts | 121° |
| 2026-05-06 17:29 | 42.54801 | 18.30164 | 2623 ft | 191 kts | 127° |
| 2026-05-06 17:29 | 42.53654 | 18.31086 | 3106 ft | 200 kts | 175° |
| 2026-05-06 17:30 | 42.52370 | 18.30592 | 4077 ft | 191 kts | 212° |
| 2026-05-06 17:30 | 42.51428 | 18.29296 | 4874 ft | 198 kts | 232° |
| 2026-05-06 17:30 | 42.50954 | 18.27431 | 5170 ft | 231 kts | 268° |
| 2026-05-06 17:30 | 42.51503 | 18.25307 | 5663 ft | 249 kts | 303° |
| 2026-05-06 17:31 | 42.52835 | 18.23773 | 6378 ft | 258 kts | 331° |
| 2026-05-06 17:31 | 42.54612 | 18.23322 | 7060 ft | 266 kts | 3° |
| 2026-05-06 17:31 | 42.56421 | 18.23743 | 7541 ft | 285 kts | 11° |
| 2026-05-06 17:31 | 42.58423 | 18.24327 | 8149 ft | 298 kts | 10° |
| 2026-05-06 17:32 | 42.60451 | 18.24818 | 9139 ft | 296 kts | 359° |
| 2026-05-06 17:32 | 42.62483 | 18.24518 | 10027 ft | 296 kts | 347° |
| 2026-05-06 17:32 | 42.64530 | 18.23977 | 10451 ft | 315 kts | 345° |
| 2026-05-06 17:32 | 42.66762 | 18.23337 | 10639 ft | 340 kts | 345° |
| 2026-05-06 17:33 | 42.69148 | 18.22651 | 10989 ft | 358 kts | 345° |
| 2026-05-06 17:33 | 42.71608 | 18.21957 | 11705 ft | 363 kts | 346° |
| 2026-05-06 17:33 | 42.74092 | 18.21271 | 12494 ft | 367 kts | 346° |
| 2026-05-06 17:33 | 42.76617 | 18.20582 | 13275 ft | 372 kts | 346° |
| 2026-05-06 17:34 | 42.79178 | 18.19890 | 14028 ft | 377 kts | 346° |
| 2026-05-06 17:34 | 42.81764 | 18.19194 | 14803 ft | 381 kts | 346° |
| 2026-05-06 17:34 | 42.84375 | 18.18493 | 15624 ft | 383 kts | 346° |
| 2026-05-06 17:34 | 42.87012 | 18.17788 | 16320 ft | 388 kts | 346° |
| 2026-05-06 17:35 | 42.89671 | 18.17077 | 17109 ft | 391 kts | 346° |
| 2026-05-06 17:35 | 42.92349 | 18.16361 | 17907 ft | 394 kts | 346° |
| 2026-05-06 17:35 | 42.95049 | 18.15637 | 18625 ft | 398 kts | 346° |
| 2026-05-06 17:36 | 43.00519 | 18.14169 | 19994 ft | 402 kts | 346° |
| 2026-05-06 17:36 | 43.03243 | 18.13438 | 20647 ft | 405 kts | 346° |
| 2026-05-06 17:36 | 43.06015 | 18.12693 | 21287 ft | 408 kts | 346° |
| 2026-05-06 17:36 | 43.08812 | 18.11940 | 21912 ft | 411 kts | 346° |
| 2026-05-06 17:37 | 43.11629 | 18.11181 | 22496 ft | 414 kts | 345° |
| 2026-05-06 17:37 | 43.14468 | 18.10414 | 23109 ft | 417 kts | 345° |
| 2026-05-06 17:37 | 43.17328 | 18.09642 | 23692 ft | 421 kts | 345° |
| 2026-05-06 17:37 | 43.20225 | 18.08858 | 24130 ft | 425 kts | 345° |
| 2026-05-06 17:38 | 43.23142 | 18.08068 | 24596 ft | 428 kts | 345° |
| 2026-05-06 17:38 | 43.26072 | 18.07275 | 25090 ft | 430 kts | 345° |
| 2026-05-06 17:38 | 43.29020 | 18.06476 | 25573 ft | 433 kts | 345° |
| 2026-05-06 17:38 | 43.31983 | 18.05672 | 26030 ft | 436 kts | 345° |
| 2026-05-06 17:39 | 43.34974 | 18.04860 | 26464 ft | 439 kts | 345° |
| 2026-05-06 17:39 | 43.37978 | 18.04043 | 26886 ft | 442 kts | 344° |
| 2026-05-06 17:39 | 43.41004 | 18.03219 | 27314 ft | 445 kts | 344° |
| 2026-05-06 17:39 | 43.44054 | 18.02388 | 27739 ft | 448 kts | 344° |
| 2026-05-06 17:40 | 43.47118 | 18.01553 | 28153 ft | 451 kts | 344° |
| 2026-05-06 17:40 | 43.50166 | 18.00720 | 28525 ft | 454 kts | 344° |
| 2026-05-06 17:40 | 43.53317 | 17.99858 | 28881 ft | 457 kts | 344° |
| 2026-05-06 17:40 | 43.56402 | 17.99015 | 29288 ft | 459 kts | 343° |
| 2026-05-06 17:41 | 43.59558 | 17.98149 | 29525 ft | 464 kts | 343° |
| 2026-05-06 17:41 | 43.62738 | 17.97283 | 29839 ft | 466 kts | 344° |
| 2026-05-06 17:41 | 43.65914 | 17.96418 | 30306 ft | 465 kts | 343° |
| 2026-05-06 17:41 | 43.69081 | 17.95549 | 30832 ft | 461 kts | 343° |
| 2026-05-06 17:42 | 43.72215 | 17.94688 | 31383 ft | 458 kts | 343° |
| 2026-05-06 17:42 | 43.75330 | 17.93830 | 31866 ft | 456 kts | 343° |
| 2026-05-06 17:42 | 43.78436 | 17.92975 | 32332 ft | 454 kts | 343° |
| 2026-05-06 17:42 | 43.81535 | 17.92120 | 32765 ft | 453 kts | 343° |
| 2026-05-06 17:43 | 43.84620 | 17.91265 | 33218 ft | 452 kts | 343° |
| 2026-05-06 17:43 | 43.87698 | 17.90413 | 33674 ft | 451 kts | 342° |
| 2026-05-06 17:43 | 43.90781 | 17.89559 | 33981 ft | 452 kts | 342° |
| 2026-05-06 17:43 | 43.93861 | 17.88704 | 34302 ft | 451 kts | 342° |
| 2026-05-06 17:44 | 43.96933 | 17.87852 | 34702 ft | 449 kts | 342° |
| 2026-05-06 17:44 | 43.99992 | 17.87004 | 35077 ft | 448 kts | 342° |
| 2026-05-06 17:44 | 44.03049 | 17.86154 | 35374 ft | 448 kts | 342° |
| 2026-05-06 17:44 | 44.06109 | 17.85301 | 35661 ft | 448 kts | 342° |
| 2026-05-06 17:45 | 44.09124 | 17.84461 | 35973 ft | 448 kts | 342° |
| 2026-05-06 17:45 | 44.12190 | 17.83605 | 35960 ft | 450 kts | 342° |
| 2026-05-06 17:45 | 44.18319 | 17.81895 | 35981 ft | 447 kts | 342° |
| 2026-05-06 17:46 | 44.24397 | 17.80196 | 35973 ft | 444 kts | 342° |
| 2026-05-06 17:46 | 44.30440 | 17.78501 | 35965 ft | 443 kts | 342° |
| 2026-05-06 17:47 | 44.36489 | 17.76795 | 35963 ft | 444 kts | 342° |
| 2026-05-06 17:47 | 44.42556 | 17.75083 | 35955 ft | 444 kts | 342° |
| 2026-05-06 17:48 | 44.48631 | 17.73371 | 35941 ft | 446 kts | 342° |
| 2026-05-06 17:48 | 44.54723 | 17.71650 | 35934 ft | 448 kts | 342° |
| 2026-05-06 17:49 | 44.60836 | 17.69918 | 35938 ft | 449 kts | 342° |
| 2026-05-06 17:49 | 44.66918 | 17.68191 | 35928 ft | 449 kts | 342° |
| 2026-05-06 17:50 | 44.73050 | 17.66445 | 35937 ft | 450 kts | 342° |
| 2026-05-06 17:50 | 44.79190 | 17.64693 | 35929 ft | 450 kts | 343° |
| 2026-05-06 17:51 | 44.85336 | 17.62936 | 35913 ft | 451 kts | 343° |
| 2026-05-06 17:51 | 44.91482 | 17.61176 | 35915 ft | 451 kts | 343° |
| 2026-05-06 17:52 | 44.96593 | 17.59709 | 35911 ft | 451 kts | 343° |
| 2026-05-06 17:52 | 45.02754 | 17.57937 | 35921 ft | 451 kts | 343° |
| 2026-05-06 17:53 | 45.08903 | 17.56164 | 35914 ft | 451 kts | 343° |
| 2026-05-06 17:53 | 45.15060 | 17.54384 | 35927 ft | 451 kts | 343° |
| 2026-05-06 17:54 | 45.21214 | 17.52602 | 35925 ft | 452 kts | 343° |
| 2026-05-06 17:54 | 45.27384 | 17.50812 | 35917 ft | 452 kts | 343° |
| 2026-05-06 17:55 | 45.33552 | 17.49017 | 35921 ft | 453 kts | 343° |
| 2026-05-06 17:55 | 45.39683 | 17.47230 | 35915 ft | 453 kts | 343° |
| 2026-05-06 17:56 | 45.45850 | 17.45428 | 35919 ft | 452 kts | 343° |
| 2026-05-06 17:56 | 45.52029 | 17.43619 | 35927 ft | 453 kts | 343° |
| 2026-05-06 17:57 | 45.58207 | 17.41807 | 35944 ft | 453 kts | 343° |
| 2026-05-06 17:57 | 45.64383 | 17.39990 | 35927 ft | 453 kts | 344° |
| 2026-05-06 17:58 | 45.70555 | 17.38170 | 35915 ft | 453 kts | 344° |
| 2026-05-06 17:58 | 45.76728 | 17.36347 | 35915 ft | 452 kts | 344° |
| 2026-05-06 17:59 | 45.82855 | 17.34532 | 35924 ft | 452 kts | 344° |
| 2026-05-06 17:59 | 45.89015 | 17.32703 | 35917 ft | 452 kts | 344° |
| 2026-05-06 18:00 | 45.95180 | 17.30869 | 35915 ft | 452 kts | 344° |
| 2026-05-06 18:00 | 46.01439 | 17.29683 | 35901 ft | 459 kts | 358° |
| 2026-05-06 18:01 | 46.07843 | 17.30140 | 35916 ft | 462 kts | 360° |
| 2026-05-06 18:01 | 46.14269 | 17.30714 | 35917 ft | 463 kts | 360° |
| 2026-05-06 18:02 | 46.20706 | 17.31233 | 35908 ft | 464 kts | 359° |
| 2026-05-06 18:02 | 46.27172 | 17.31708 | 35905 ft | 465 kts | 359° |
| 2026-05-06 18:03 | 46.33648 | 17.32170 | 35902 ft | 466 kts | 359° |
| 2026-05-06 18:03 | 46.40089 | 17.32630 | 35898 ft | 467 kts | 359° |
| 2026-05-06 18:04 | 46.46581 | 17.33097 | 35895 ft | 467 kts | 359° |
| 2026-05-06 18:04 | 46.53075 | 17.33567 | 35888 ft | 468 kts | 359° |
| 2026-05-06 18:05 | 46.59576 | 17.34038 | 35884 ft | 468 kts | 359° |
| 2026-05-06 18:05 | 46.66073 | 17.34511 | 35888 ft | 467 kts | 359° |
| 2026-05-06 18:06 | 46.72573 | 17.34984 | 35891 ft | 467 kts | 359° |
| 2026-05-06 18:06 | 46.79062 | 17.35458 | 35892 ft | 467 kts | 359° |
| 2026-05-06 18:07 | 46.85551 | 17.35933 | 35886 ft | 467 kts | 359° |
| 2026-05-06 18:07 | 46.92038 | 17.36409 | 35882 ft | 467 kts | 359° |
| 2026-05-06 18:08 | 46.98527 | 17.36886 | 35873 ft | 467 kts | 359° |
| 2026-05-06 18:08 | 47.04980 | 17.37361 | 35873 ft | 467 kts | 359° |
| 2026-05-06 18:09 | 47.11476 | 17.37841 | 35882 ft | 468 kts | 359° |
| 2026-05-06 18:09 | 47.17995 | 17.38324 | 35862 ft | 469 kts | 359° |
| 2026-05-06 18:10 | 47.24531 | 17.38809 | 35856 ft | 471 kts | 359° |
| 2026-05-06 18:10 | 47.31095 | 17.39297 | 35858 ft | 472 kts | 359° |
| 2026-05-06 18:11 | 47.37650 | 17.39787 | 35861 ft | 473 kts | 359° |
| 2026-05-06 18:11 | 47.44231 | 17.40279 | 35857 ft | 473 kts | 359° |
| 2026-05-06 18:12 | 47.50837 | 17.40774 | 35864 ft | 478 kts | 359° |
| 2026-05-06 18:12 | 47.57549 | 17.41276 | 35849 ft | 485 kts | 359° |
| 2026-05-06 18:13 | 47.64289 | 17.41786 | 35842 ft | 485 kts | 359° |
| 2026-05-06 18:13 | 47.71036 | 17.42298 | 35831 ft | 485 kts | 359° |
| 2026-05-06 18:14 | 47.77725 | 17.42806 | 35471 ft | 482 kts | 359° |
| 2026-05-06 18:14 | 47.81056 | 17.43060 | 35216 ft | 477 kts | 359° |
| 2026-05-06 18:14 | 47.84370 | 17.43312 | 34953 ft | 477 kts | 359° |
| 2026-05-06 18:15 | 47.87691 | 17.43563 | 34709 ft | 479 kts | 359° |
| 2026-05-06 18:15 | 47.91030 | 17.43816 | 34466 ft | 480 kts | 359° |
| 2026-05-06 18:15 | 47.94370 | 17.44120 | 34221 ft | 482 kts | 360° |
| 2026-05-06 18:15 | 47.97715 | 17.44476 | 33982 ft | 483 kts | 0° |
| 2026-05-06 18:16 | 48.01077 | 17.44857 | 33747 ft | 483 kts | 0° |
| 2026-05-06 18:16 | 48.04431 | 17.45240 | 33476 ft | 484 kts | 0° |
| 2026-05-06 18:16 | 48.07783 | 17.45619 | 33202 ft | 484 kts | 0° |
| 2026-05-06 18:16 | 48.11142 | 17.45993 | 32930 ft | 484 kts | 0° |
| 2026-05-06 18:17 | 48.14498 | 17.46362 | 32662 ft | 484 kts | 0° |
| 2026-05-06 18:17 | 48.17850 | 17.46727 | 32401 ft | 484 kts | 0° |
| 2026-05-06 18:17 | 48.21221 | 17.47094 | 32144 ft | 484 kts | 360° |
| 2026-05-06 18:17 | 48.24580 | 17.47458 | 31894 ft | 485 kts | 360° |
| 2026-05-06 18:18 | 48.31348 | 17.48194 | 31776 ft | 489 kts | 360° |
| 2026-05-06 18:18 | 48.38137 | 17.48937 | 31774 ft | 489 kts | 360° |
| 2026-05-06 18:19 | 48.44893 | 17.49679 | 31791 ft | 490 kts | 359° |
| 2026-05-06 18:19 | 48.51711 | 17.50429 | 31773 ft | 492 kts | 359° |
| 2026-05-06 18:20 | 48.58553 | 17.51184 | 31771 ft | 493 kts | 359° |
| 2026-05-06 18:20 | 48.65416 | 17.51944 | 31779 ft | 494 kts | 359° |
| 2026-05-06 18:21 | 48.72271 | 17.52705 | 31776 ft | 494 kts | 359° |
| 2026-05-06 18:21 | 48.79122 | 17.53468 | 31777 ft | 493 kts | 359° |
| 2026-05-06 18:22 | 48.85954 | 17.53915 | 31797 ft | 489 kts | 354° |
| 2026-05-06 18:22 | 48.92738 | 17.53718 | 31780 ft | 487 kts | 353° |
| 2026-05-06 18:23 | 48.99524 | 17.53475 | 31776 ft | 487 kts | 354° |
| 2026-05-06 18:23 | 49.06298 | 17.53311 | 31777 ft | 486 kts | 354° |
| 2026-05-06 18:24 | 49.13062 | 17.53180 | 31778 ft | 486 kts | 354° |
| 2026-05-06 18:24 | 49.19776 | 17.53051 | 31777 ft | 486 kts | 354° |
| 2026-05-06 18:25 | 49.26545 | 17.52916 | 31781 ft | 486 kts | 354° |
| 2026-05-06 18:25 | 49.33306 | 17.52781 | 31787 ft | 486 kts | 354° |
| 2026-05-06 18:26 | 49.40063 | 17.52694 | 31781 ft | 486 kts | 354° |
| 2026-05-06 18:26 | 49.46821 | 17.52627 | 31782 ft | 485 kts | 354° |
| 2026-05-06 18:27 | 49.53573 | 17.52556 | 31774 ft | 485 kts | 354° |
| 2026-05-06 18:27 | 49.60326 | 17.52479 | 31784 ft | 485 kts | 354° |
| 2026-05-06 18:28 | 49.67087 | 17.52400 | 31779 ft | 485 kts | 354° |
| 2026-05-06 18:28 | 49.73851 | 17.52322 | 31787 ft | 486 kts | 354° |
| 2026-05-06 18:29 | 49.80609 | 17.52243 | 31774 ft | 486 kts | 354° |
| 2026-05-06 18:29 | 49.87383 | 17.52164 | 31785 ft | 486 kts | 354° |
| 2026-05-06 18:30 | 49.94111 | 17.52086 | 31784 ft | 487 kts | 354° |
| 2026-05-06 18:30 | 50.00897 | 17.52006 | 31800 ft | 488 kts | 354° |
| 2026-05-06 18:31 | 50.07708 | 17.51925 | 31777 ft | 490 kts | 354° |
| 2026-05-06 18:31 | 50.14543 | 17.51845 | 31777 ft | 491 kts | 354° |
| 2026-05-06 18:32 | 50.21391 | 17.51766 | 31771 ft | 492 kts | 354° |
| 2026-05-06 18:32 | 50.28192 | 17.51467 | 31727 ft | 481 kts | 346° |
| 2026-05-06 18:33 | 50.31437 | 17.50614 | 31197 ft | 469 kts | 342° |
| 2026-05-06 18:33 | 50.34635 | 17.49589 | 30510 ft | 467 kts | 342° |
| 2026-05-06 18:33 | 50.37818 | 17.48508 | 29580 ft | 470 kts | 342° |
| 2026-05-06 18:33 | 50.41040 | 17.47410 | 28544 ft | 474 kts | 342° |
| 2026-05-06 18:34 | 50.44234 | 17.46350 | 28079 ft | 468 kts | 343° |
| 2026-05-06 18:34 | 50.47472 | 17.45291 | 27580 ft | 482 kts | 343° |
| 2026-05-06 18:34 | 50.50753 | 17.44233 | 27093 ft | 491 kts | 343° |
| 2026-05-06 18:34 | 50.54101 | 17.43169 | 26634 ft | 490 kts | 344° |
| 2026-05-06 18:35 | 50.57445 | 17.42117 | 26145 ft | 492 kts | 344° |
| 2026-05-06 18:35 | 50.60801 | 17.41062 | 25668 ft | 492 kts | 344° |
| 2026-05-06 18:35 | 50.64167 | 17.40002 | 25205 ft | 493 kts | 344° |
| 2026-05-06 18:35 | 50.67530 | 17.38939 | 24743 ft | 492 kts | 344° |
| 2026-05-06 18:36 | 50.70884 | 17.37877 | 24292 ft | 491 kts | 344° |
| 2026-05-06 18:36 | 50.74223 | 17.36816 | 23849 ft | 488 kts | 344° |
| 2026-05-06 18:36 | 50.77546 | 17.35758 | 23398 ft | 485 kts | 344° |
| 2026-05-06 18:36 | 50.80837 | 17.34709 | 22902 ft | 481 kts | 344° |
| 2026-05-06 18:37 | 50.83001 | 17.34018 | 22548 ft | 478 kts | 344° |
| 2026-05-06 18:37 | 50.86248 | 17.32980 | 22055 ft | 474 kts | 344° |
| 2026-05-06 18:37 | 50.89426 | 17.31962 | 21566 ft | 470 kts | 344° |
| 2026-05-06 18:37 | 50.92654 | 17.30926 | 21069 ft | 466 kts | 344° |
| 2026-05-06 18:38 | 50.96852 | 17.29576 | 20435 ft | 462 kts | 344° |
| 2026-05-06 18:38 | 50.98977 | 17.28892 | 20110 ft | 460 kts | 344° |
| 2026-05-06 18:38 | 51.02101 | 17.27884 | 19657 ft | 457 kts | 345° |
| 2026-05-06 18:38 | 51.05210 | 17.26880 | 19224 ft | 454 kts | 345° |
| 2026-05-06 18:39 | 51.08294 | 17.25884 | 18761 ft | 451 kts | 345° |
| 2026-05-06 18:39 | 51.11355 | 17.24893 | 18322 ft | 447 kts | 345° |
| 2026-05-06 18:39 | 51.14355 | 17.23921 | 17855 ft | 444 kts | 345° |
| 2026-05-06 18:40 | 51.20366 | 17.21970 | 16847 ft | 438 kts | 345° |
| 2026-05-06 18:40 | 51.23347 | 17.20999 | 16356 ft | 435 kts | 345° |
| 2026-05-06 18:40 | 51.26303 | 17.20036 | 15881 ft | 432 kts | 345° |
| 2026-05-06 18:40 | 51.29242 | 17.19077 | 15401 ft | 430 kts | 345° |
| 2026-05-06 18:41 | 51.32164 | 17.18123 | 14929 ft | 427 kts | 345° |
| 2026-05-06 18:41 | 51.35069 | 17.17173 | 14463 ft | 424 kts | 346° |
| 2026-05-06 18:41 | 51.37955 | 17.16227 | 14009 ft | 422 kts | 346° |
| 2026-05-06 18:41 | 51.40827 | 17.15285 | 13556 ft | 420 kts | 346° |
| 2026-05-06 18:42 | 51.43690 | 17.14345 | 13050 ft | 418 kts | 346° |
| 2026-05-06 18:42 | 51.46535 | 17.13411 | 12566 ft | 416 kts | 346° |
| 2026-05-06 18:42 | 51.49334 | 17.12549 | 12070 ft | 414 kts | 349° |
| 2026-05-06 18:42 | 51.52209 | 17.12410 | 11589 ft | 412 kts | 1° |
| 2026-05-06 18:43 | 51.55050 | 17.12772 | 11176 ft | 405 kts | 3° |
| 2026-05-06 18:43 | 51.57851 | 17.13166 | 10891 ft | 404 kts | 3° |
| 2026-05-06 18:43 | 51.60650 | 17.13547 | 10601 ft | 403 kts | 3° |
| 2026-05-06 18:43 | 51.63447 | 17.13903 | 10319 ft | 402 kts | 2° |
| 2026-05-06 18:44 | 51.66228 | 17.14239 | 10031 ft | 399 kts | 2° |
| 2026-05-06 18:44 | 51.68982 | 17.14555 | 9839 ft | 395 kts | 1° |
| 2026-05-06 18:44 | 51.71721 | 17.14861 | 9802 ft | 394 kts | 1° |
| 2026-05-06 18:44 | 51.74368 | 17.15155 | 9794 ft | 394 kts | 1° |
| 2026-05-06 18:45 | 51.77103 | 17.15459 | 9791 ft | 394 kts | 1° |
| 2026-05-06 18:45 | 51.79842 | 17.15764 | 9793 ft | 394 kts | 1° |
| 2026-05-06 18:45 | 51.82574 | 17.16069 | 9794 ft | 394 kts | 1° |
| 2026-05-06 18:45 | 51.85310 | 17.16376 | 9795 ft | 394 kts | 1° |
| 2026-05-06 18:46 | 51.88042 | 17.16683 | 9802 ft | 393 kts | 1° |
| 2026-05-06 18:46 | 51.90773 | 17.16990 | 9802 ft | 394 kts | 1° |
| 2026-05-06 18:46 | 51.93508 | 17.17298 | 9802 ft | 394 kts | 1° |
| 2026-05-06 18:46 | 51.96240 | 17.17557 | 9801 ft | 393 kts | 358° |
| 2026-05-06 18:47 | 51.98964 | 17.17419 | 9801 ft | 391 kts | 353° |
| 2026-05-06 18:47 | 52.01680 | 17.17089 | 9810 ft | 392 kts | 352° |
| 2026-05-06 18:47 | 52.04411 | 17.16736 | 9801 ft | 393 kts | 352° |
| 2026-05-06 18:47 | 52.07138 | 17.16416 | 9799 ft | 393 kts | 353° |
| 2026-05-06 18:48 | 52.09874 | 17.16134 | 9805 ft | 394 kts | 353° |
| 2026-05-06 18:48 | 52.12589 | 17.15877 | 9598 ft | 386 kts | 353° |
| 2026-05-06 18:48 | 52.15196 | 17.15640 | 9439 ft | 363 kts | 353° |
| 2026-05-06 18:48 | 52.17635 | 17.15354 | 9280 ft | 341 kts | 351° |
| 2026-05-06 18:49 | 52.19896 | 17.14984 | 9146 ft | 322 kts | 350° |
| 2026-05-06 18:49 | 52.22073 | 17.14603 | 8833 ft | 311 kts | 349° |
| 2026-05-06 18:49 | 52.24222 | 17.14225 | 8278 ft | 310 kts | 350° |
| 2026-05-06 18:49 | 52.26359 | 17.13860 | 7753 ft | 307 kts | 350° |
| 2026-05-06 18:50 | 52.28471 | 17.13537 | 7223 ft | 303 kts | 355° |
| 2026-05-06 18:50 | 52.30561 | 17.14018 | 6707 ft | 304 kts | 13° |
| 2026-05-06 18:50 | 52.32571 | 17.14997 | 6285 ft | 298 kts | 14° |
| 2026-05-06 18:50 | 52.34572 | 17.15292 | 5855 ft | 284 kts | 345° |
| 2026-05-06 18:51 | 52.36272 | 17.13914 | 5396 ft | 267 kts | 310° |
| 2026-05-06 18:51 | 52.37105 | 17.11414 | 5157 ft | 243 kts | 276° |
| 2026-05-06 18:51 | 52.37316 | 17.08729 | 4790 ft | 238 kts | 277° |
| 2026-05-06 18:51 | 52.37670 | 17.06088 | 4293 ft | 236 kts | 281° |
| 2026-05-06 18:52 | 52.38105 | 17.03558 | 3838 ft | 227 kts | 284° |
| 2026-05-06 18:52 | 52.38579 | 17.01065 | 2964 ft | 229 kts | 285° |
| 2026-05-06 18:52 | 52.39036 | 16.98690 | 2548 ft | 209 kts | 286° |
| 2026-05-06 18:52 | 52.39455 | 16.96484 | 2053 ft | 198 kts | 287° |
| 2026-05-06 18:53 | 52.39855 | 16.94380 | 1656 ft | 186 kts | 290° |
| 2026-05-06 18:53 | 52.40224 | 16.92450 | 1391 ft | 170 kts | 291° |
| 2026-05-06 18:53 | 52.40563 | 16.90678 | 1172 ft | 156 kts | 289° |
| 2026-05-06 18:53 | 52.40866 | 16.89097 | 999 ft | 136 kts | 290° |
| 2026-05-06 18:54 | 52.41144 | 16.87649 | 780 ft | 130 kts | 290° |
| 2026-05-06 18:54 | 52.41406 | 16.86222 | 596 ft | 133 kts | 289° |
| 2026-05-06 18:54 | 52.41689 | 16.84771 | 410 ft | 135 kts | 290° |
| 2026-05-06 18:54 | 52.41963 | 16.83350 | 292 ft | 125 kts | 290° |
| 2026-05-06 18:55 | 52.42188 | 16.82197 | 289 ft | 85 kts | 288° |
| 2026-05-06 18:55 | 52.42299 | 16.81548 | 288 ft | 46 kts | 274° |
| 2026-05-06 18:55 | 52.42277 | 16.81233 | 287 ft | 21 kts | 257° |
| 2026-05-06 18:55 | 52.42243 | 16.81091 | 287 ft | 5 kts | 197° |
| 2026-05-06 18:56 | 52.42222 | 16.81130 | 287 ft | 10 kts | 111° |
| 2026-05-06 18:56 | 52.42191 | 16.81287 | 287 ft | 17 kts | 108° |
| 2026-05-06 18:56 | 52.42154 | 16.81475 | 291 ft | 17 kts | 107° |
| 2026-05-06 18:56 | 52.42119 | 16.81658 | 287 ft | 17 kts | 107° |
| 2026-05-06 18:57 | 52.42085 | 16.81835 | 290 ft | 16 kts | 108° |
| 2026-05-06 18:57 | 52.42049 | 16.82018 | 287 ft | 18 kts | 107° |
| 2026-05-06 18:57 | 52.42010 | 16.82222 | 291 ft | 19 kts | 107° |
| 2026-05-06 18:57 | 52.41972 | 16.82420 | 287 ft | 18 kts | 108° |
| 2026-05-06 18:58 | 52.41935 | 16.82609 | 287 ft | 17 kts | 108° |
| 2026-05-06 18:58 | 52.41900 | 16.82794 | 287 ft | 17 kts | 107° |
| 2026-05-06 18:58 | 52.41829 | 16.82904 | 289 ft | 16 kts | 194° |
| 2026-05-06 18:58 | 52.41724 | 16.82849 | 287 ft | 15 kts | 197° |
| 2026-05-06 18:59 | 52.41652 | 16.82941 | 287 ft | 15 kts | 101° |
| 2026-05-06 18:59 | 52.41629 | 16.83104 | 287 ft | 14 kts | 103° |
| 2026-05-06 18:59 | 52.41608 | 16.83261 | 289 ft | 14 kts | 103° |
| 2026-05-06 18:59 | 52.41577 | 16.83339 | 291 ft | 7 kts | 185° |
| 2026-05-06 19:00 | 52.41547 | 16.83326 | 287 ft | 2 kts | 192° |
| 2026-05-06 19:00 | 52.41540 | 16.83323 | 287 ft | 0 kts | 192° |